sensor_id;sensor_type;location;lat;lon;timestamp;pressure;altitude;pressure_sealevel;temperature;humidity
44103;BME280;29769;42.178;24.742;2022-11-27T00:00:19;100760.06;;;4.39;100.00
44103;BME280;29769;42.178;24.742;2022-11-27T00:03:04;100768.91;;;4.45;100.00
44103;BME280;29769;42.178;24.742;2022-11-27T00:05:58;100762.63;;;4.37;100.00
44103;BME280;29769;42.178;24.742;2022-11-27T00:08:44;100770.44;;;4.36;100.00
44103;BME280;29769;42.178;24.742;2022-11-27T00:11:30;100767.06;;;4.40;100.00
44103;BME280;29769;42.178;24.742;2022-11-27T00:14:16;100767.06;;;4.41;100.00
44103;BME280;29769;42.178;24.742;2022-11-27T00:17:00;100769.50;;;4.34;100.00
44103;BME280;29769;42.178;24.742;2022-11-27T00:19:45;100779.03;;;4.33;100.00
44103;BME280;29769;42.178;24.742;2022-11-27T00:22:30;100775.31;;;4.57;100.00
44103;BME280;29769;42.178;24.742;2022-11-27T00:25:15;100784.41;;;4.72;100.00
44103;BME280;29769;42.178;24.742;2022-11-27T00:28:00;100778.63;;;4.84;100.00
44103;BME280;29769;42.178;24.742;2022-11-27T00:30:45;100777.16;;;4.61;100.00
44103;BME280;29769;42.178;24.742;2022-11-27T00:33:30;100774.88;;;4.40;100.00
44103;BME280;29769;42.178;24.742;2022-11-27T00:36:15;100774.16;;;4.14;100.00
44103;BME280;29769;42.178;24.742;2022-11-27T00:39:00;100789.44;;;4.02;100.00
44103;BME280;29769;42.178;24.742;2022-11-27T00:41:45;100788.22;;;3.89;100.00
44103;BME280;29769;42.178;24.742;2022-11-27T00:44:30;100791.38;;;3.79;100.00
44103;BME280;29769;42.178;24.742;2022-11-27T00:47:15;100787.81;;;3.76;100.00
44103;BME280;29769;42.178;24.742;2022-11-27T00:49:59;100794.03;;;3.81;100.00
44103;BME280;29769;42.178;24.742;2022-11-27T00:52:45;100777.34;;;3.74;100.00
44103;BME280;29769;42.178;24.742;2022-11-27T00:55:30;100798.44;;;3.83;100.00
44103;BME280;29769;42.178;24.742;2022-11-27T00:58:14;100800.41;;;3.90;100.00
44103;BME280;29769;42.178;24.742;2022-11-27T01:01:02;100799.78;;;4.00;100.00
44103;BME280;29769;42.178;24.742;2022-11-27T01:03:48;100800.41;;;3.90;100.00
44103;BME280;29769;42.178;24.742;2022-11-27T01:06:33;100792.22;;;3.78;100.00
44103;BME280;29769;42.178;24.742;2022-11-27T01:09:18;100786.13;;;3.78;100.00
44103;BME280;29769;42.178;24.742;2022-11-27T01:12:03;100789.53;;;3.75;100.00
44103;BME280;29769;42.178;24.742;2022-11-27T01:14:48;100787.81;;;3.76;100.00
44103;BME280;29769;42.178;24.742;2022-11-27T01:17:33;100770.34;;;3.72;100.00
44103;BME280;29769;42.178;24.742;2022-11-27T01:20:18;100778.50;;;3.84;100.00
44103;BME280;29769;42.178;24.742;2022-11-27T01:23:03;100784.03;;;3.94;100.00
44103;BME280;29769;42.178;24.742;2022-11-27T01:25:48;100770.53;;;4.09;100.00
44103;BME280;29769;42.178;24.742;2022-11-27T01:28:34;100777.50;;;4.10;100.00
44103;BME280;29769;42.178;24.742;2022-11-27T01:31:21;100781.75;;;4.07;100.00
44103;BME280;29769;42.178;24.742;2022-11-27T01:34:11;100777.13;;;3.96;100.00
44103;BME280;29769;42.178;24.742;2022-11-27T01:36:56;100769.06;;;3.87;100.00
44103;BME280;29769;42.178;24.742;2022-11-27T01:39:41;100785.31;;;4.09;100.00
44103;BME280;29769;42.178;24.742;2022-11-27T01:42:26;100789.63;;;4.10;100.00
44103;BME280;29769;42.178;24.742;2022-11-27T01:45:14;100790.28;;;4.01;100.00
44103;BME280;29769;42.178;24.742;2022-11-27T01:48:01;100783.88;;;3.90;100.00
44103;BME280;29769;42.178;24.742;2022-11-27T01:50:46;100787.41;;;3.92;100.00
44103;BME280;29769;42.178;24.742;2022-11-27T01:53:31;100786.50;;;3.90;100.00
44103;BME280;29769;42.178;24.742;2022-11-27T01:56:19;100784.94;;;3.96;100.00
44103;BME280;29769;42.178;24.742;2022-11-27T01:59:04;100769.03;;;3.86;100.00
44103;BME280;29769;42.178;24.742;2022-11-27T02:01:49;100779.91;;;4.02;100.00
44103;BME280;29769;42.178;24.742;2022-11-27T02:04:34;100780.78;;;4.03;100.00
44103;BME280;29769;42.178;24.742;2022-11-27T02:07:19;100774.56;;;3.98;100.00
44103;BME280;29769;42.178;24.742;2022-11-27T02:10:05;100773.50;;;3.91;100.00
44103;BME280;29769;42.178;24.742;2022-11-27T02:13:13;100771.56;;;3.84;100.00
44103;BME280;29769;42.178;24.742;2022-11-27T02:25:37;100776.16;;;4.24;100.00
44103;BME280;29769;42.178;24.742;2022-11-27T02:28:58;100776.66;;;4.42;100.00
44103;BME280;29769;42.178;24.742;2022-11-27T02:32:00;100770.81;;;4.51;100.00
44103;BME280;29769;42.178;24.742;2022-11-27T02:34:54;100751.81;;;4.22;100.00
44103;BME280;29769;42.178;24.742;2022-11-27T02:37:48;100782.97;;;4.19;100.00
44103;BME280;29769;42.178;24.742;2022-11-27T02:40:38;100781.44;;;4.26;100.00
44103;BME280;29769;42.178;24.742;2022-11-27T02:43:30;100779.09;;;4.36;100.00
44103;BME280;29769;42.178;24.742;2022-11-27T02:46:18;100774.25;;;4.50;100.00
44103;BME280;29769;42.178;24.742;2022-11-27T02:49:09;100781.81;;;4.72;100.00
44103;BME280;29769;42.178;24.742;2022-11-27T02:51:56;100778.44;;;4.76;100.00
44103;BME280;29769;42.178;24.742;2022-11-27T02:54:45;100779.19;;;4.72;100.00
44103;BME280;29769;42.178;24.742;2022-11-27T02:57:32;100783.66;;;4.76;100.00
44103;BME280;29769;42.178;24.742;2022-11-27T03:00:18;100787.97;;;4.76;100.00
44103;BME280;29769;42.178;24.742;2022-11-27T03:03:04;100785.38;;;4.76;100.00
44103;BME280;29769;42.178;24.742;2022-11-27T03:05:53;100790.28;;;4.65;100.00
44103;BME280;29769;42.178;24.742;2022-11-27T03:08:52;100793.31;;;4.47;100.00
44103;BME280;29769;42.178;24.742;2022-11-27T03:11:39;100782.31;;;4.26;100.00
44103;BME280;29769;42.178;24.742;2022-11-27T03:14:24;100801.75;;;4.08;100.00
44103;BME280;29769;42.178;24.742;2022-11-27T03:19:57;100798.66;;;3.91;100.00
44103;BME280;29769;42.178;24.742;2022-11-27T03:22:45;100802.88;;;3.86;100.00
44103;BME280;29769;42.178;24.742;2022-11-27T03:25:30;100798.44;;;3.83;100.00
44103;BME280;29769;42.178;24.742;2022-11-27T03:28:15;100793.31;;;3.86;100.00
44103;BME280;29769;42.178;24.742;2022-11-27T03:31:00;100795.06;;;3.86;100.00
44103;BME280;29769;42.178;24.742;2022-11-27T03:33:45;100777.22;;;3.70;100.00
44103;BME280;29769;42.178;24.742;2022-11-27T03:36:30;100794.13;;;3.84;100.00
44103;BME280;29769;42.178;24.742;2022-11-27T03:39:15;100795.13;;;3.89;100.00
44103;BME280;29769;42.178;24.742;2022-11-27T03:45:13;100802.81;;;3.84;100.00
44103;BME280;29769;42.178;24.742;2022-11-27T03:48:34;100796.63;;;3.81;100.00
44103;BME280;29769;42.178;24.742;2022-11-27T03:51:48;100800.16;;;3.83;100.00
44103;BME280;29769;42.178;24.742;2022-11-27T03:55:02;100801.88;;;3.82;100.00
44103;BME280;29769;42.178;24.742;2022-11-27T03:58:00;100796.78;;;3.85;100.00
44103;BME280;29769;42.178;24.742;2022-11-27T04:00:49;100794.16;;;3.85;100.00
44103;BME280;29769;42.178;24.742;2022-11-27T04:03:35;100780.84;;;3.75;100.00
44103;BME280;29769;42.178;24.742;2022-11-27T04:06:19;100795.78;;;3.82;100.00
44103;BME280;29769;42.178;24.742;2022-11-27T04:09:04;100790.63;;;3.83;100.00
44103;BME280;29769;42.178;24.742;2022-11-27T04:11:49;100784.41;;;3.78;100.00
44103;BME280;29769;42.178;24.742;2022-11-27T04:14:34;100782.75;;;3.80;100.00
44103;BME280;29769;42.178;24.742;2022-11-27T04:17:19;100780.22;;;3.83;100.00
44103;BME280;29769;42.178;24.742;2022-11-27T04:20:04;100771.13;;;3.69;100.00
44103;BME280;29769;42.178;24.742;2022-11-27T04:22:49;100782.75;;;3.82;100.00
44103;BME280;29769;42.178;24.742;2022-11-27T04:25:35;100790.69;;;3.86;100.00
44103;BME280;29769;42.178;24.742;2022-11-27T04:28:19;100792.47;;;3.86;100.00
44103;BME280;29769;42.178;24.742;2022-11-27T04:31:04;100785.47;;;3.85;100.00
44103;BME280;29769;42.178;24.742;2022-11-27T04:33:49;100790.69;;;3.86;100.00
44103;BME280;29769;42.178;24.742;2022-11-27T04:36:34;100787.13;;;3.81;100.00
44103;BME280;29769;42.178;24.742;2022-11-27T04:39:19;100778.94;;;3.69;100.00
44103;BME280;29769;42.178;24.742;2022-11-27T04:42:04;100784.06;;;3.66;100.00
44103;BME280;29769;42.178;24.742;2022-11-27T04:44:48;100789.06;;;3.60;100.00
44103;BME280;29769;42.178;24.742;2022-11-27T04:47:33;100783.31;;;3.42;100.00
44103;BME280;29769;42.178;24.742;2022-11-27T04:50:18;100792.06;;;3.45;100.00
44103;BME280;29769;42.178;24.742;2022-11-27T04:53:03;100798.13;;;3.44;100.00
44103;BME280;29769;42.178;24.742;2022-11-27T04:55:50;100799.78;;;3.42;100.00
44103;BME280;29769;42.178;24.742;2022-11-27T04:58:35;100797.00;;;3.36;100.00
44103;BME280;29769;42.178;24.742;2022-11-27T05:01:20;100801.47;;;3.40;100.00
44103;BME280;29769;42.178;24.742;2022-11-27T05:04:05;100793.63;;;3.39;100.00
44103;BME280;29769;42.178;24.742;2022-11-27T05:06:50;100799.66;;;3.38;100.00
44103;BME280;29769;42.178;24.742;2022-11-27T05:09:35;100806.47;;;3.34;100.00
44103;BME280;29769;42.178;24.742;2022-11-27T05:12:20;100810.66;;;3.29;100.00
44103;BME280;29769;42.178;24.742;2022-11-27T05:15:05;100809.69;;;3.26;100.00
44103;BME280;29769;42.178;24.742;2022-11-27T05:17:50;100799.13;;;3.21;100.00
44103;BME280;29769;42.178;24.742;2022-11-27T05:20:35;100803.44;;;3.21;100.00
44103;BME280;29769;42.178;24.742;2022-11-27T05:23:20;100810.38;;;3.20;100.00
44103;BME280;29769;42.178;24.742;2022-11-27T05:26:05;100816.44;;;3.21;100.00
44103;BME280;29769;42.178;24.742;2022-11-27T05:28:50;100819.00;;;3.19;100.00
44103;BME280;29769;42.178;24.742;2022-11-27T05:31:35;100823.28;;;3.17;100.00
44103;BME280;29769;42.178;24.742;2022-11-27T05:34:20;100824.84;;;3.12;100.00
44103;BME280;29769;42.178;24.742;2022-11-27T05:37:04;100810.44;;;2.96;100.00
44103;BME280;29769;42.178;24.742;2022-11-27T05:39:49;100816.31;;;3.16;100.00
44103;BME280;29769;42.178;24.742;2022-11-27T05:42:34;100820.63;;;3.16;100.00
44103;BME280;29769;42.178;24.742;2022-11-27T05:45:19;100813.41;;;3.07;100.00
44103;BME280;29769;42.178;24.742;2022-11-27T05:48:04;100815.13;;;3.06;100.00
44103;BME280;29769;42.178;24.742;2022-11-27T05:50:49;100826.41;;;3.07;100.00
44103;BME280;29769;42.178;24.742;2022-11-27T05:53:34;100826.25;;;3.02;100.00
44103;BME280;29769;42.178;24.742;2022-11-27T05:56:18;100841.06;;;3.05;100.00
44103;BME280;29769;42.178;24.742;2022-11-27T05:59:03;100834.00;;;3.01;100.00
44103;BME280;29769;42.178;24.742;2022-11-27T06:01:48;100849.94;;;3.11;100.00
44103;BME280;29769;42.178;24.742;2022-11-27T06:04:33;100848.38;;;3.17;100.00
44103;BME280;29769;42.178;24.742;2022-11-27T06:07:18;100845.97;;;3.23;100.00
44103;BME280;29769;42.178;24.742;2022-11-27T06:10:03;100849.59;;;3.28;100.00
44103;BME280;29769;42.178;24.742;2022-11-27T06:12:48;100842.59;;;3.25;100.00
44103;BME280;29769;42.178;24.742;2022-11-27T06:15:35;100854.22;;;3.36;100.00
44103;BME280;29769;42.178;24.742;2022-11-27T06:18:20;100856.19;;;3.43;100.00
44103;BME280;29769;42.178;24.742;2022-11-27T06:21:13;100850.31;;;3.49;100.00
44103;BME280;29769;42.178;24.742;2022-11-27T06:23:58;100856.63;;;3.57;100.00
44103;BME280;29769;42.178;24.742;2022-11-27T06:26:43;100850.72;;;3.63;100.00
44103;BME280;29769;42.178;24.742;2022-11-27T06:29:28;100848.34;;;3.70;100.00
44103;BME280;29769;42.178;24.742;2022-11-27T06:32:12;100855.63;;;3.80;100.00
44103;BME280;29769;42.178;24.742;2022-11-27T06:34:57;100851.38;;;3.84;100.00
44103;BME280;29769;42.178;24.742;2022-11-27T06:37:42;100834.69;;;3.77;100.00
44103;BME280;29769;42.178;24.742;2022-11-27T06:40:27;100845.28;;;3.83;100.00
44103;BME280;29769;42.178;24.742;2022-11-27T06:43:12;100849.72;;;3.86;100.00
44103;BME280;29769;42.178;24.742;2022-11-27T06:45:57;100842.13;;;3.93;100.00
44103;BME280;29769;42.178;24.742;2022-11-27T06:48:45;100841.69;;;4.08;100.00
44103;BME280;29769;42.178;24.742;2022-11-27T06:51:31;100841.59;;;4.05;100.00
44103;BME280;29769;42.178;24.742;2022-11-27T06:54:15;100851.25;;;4.09;100.00
44103;BME280;29769;42.178;24.742;2022-11-27T06:57:00;100847.25;;;4.20;100.00
44103;BME280;29769;42.178;24.742;2022-11-27T06:59:45;100849.09;;;4.24;100.00
44103;BME280;29769;42.178;24.742;2022-11-27T07:02:30;100847.50;;;4.29;100.00
44103;BME280;29769;42.178;24.742;2022-11-27T07:05:15;100845.97;;;4.36;100.00
44103;BME280;29769;42.178;24.742;2022-11-27T07:08:00;100844.34;;;4.41;100.00
44103;BME280;29769;42.178;24.742;2022-11-27T07:10:45;100845.91;;;4.34;100.00
44103;BME280;29769;42.178;24.742;2022-11-27T07:13:30;100850.56;;;4.46;100.00
44103;BME280;29769;42.178;24.742;2022-11-27T07:16:15;100841.63;;;4.68;100.00
44103;BME280;29769;42.178;24.742;2022-11-27T07:19:03;100842.00;;;4.83;100.00
44103;BME280;29769;42.178;24.742;2022-11-27T07:21:48;100844.84;;;4.92;100.00
44103;BME280;29769;42.178;24.742;2022-11-27T07:24:33;100842.31;;;4.93;100.00
44103;BME280;29769;42.178;24.742;2022-11-27T07:27:19;100849.41;;;4.99;100.00
44103;BME280;29769;42.178;24.742;2022-11-27T07:30:04;100856.47;;;5.03;100.00
44103;BME280;29769;42.178;24.742;2022-11-27T07:32:49;100818.34;;;5.08;100.00
44103;BME280;29769;42.178;24.742;2022-11-27T07:35:33;100857.38;;;5.40;100.00
44103;BME280;29769;42.178;24.742;2022-11-27T07:38:18;100850.59;;;5.48;100.00
44103;BME280;29769;42.178;24.742;2022-11-27T07:41:04;100859.66;;;5.63;100.00
44103;BME280;29769;42.178;24.742;2022-11-27T07:43:49;100849.50;;;5.77;100.00
44103;BME280;29769;42.178;24.742;2022-11-27T07:46:34;100854.03;;;5.84;100.00
44103;BME280;29769;42.178;24.742;2022-11-27T07:49:19;100847.81;;;6.18;100.00
44103;BME280;29769;42.178;24.742;2022-11-27T07:52:04;100852.69;;;6.42;100.00
44103;BME280;29769;42.178;24.742;2022-11-27T07:54:49;100845.00;;;6.49;100.00
44103;BME280;29769;42.178;24.742;2022-11-27T07:57:34;100857.06;;;6.43;100.00
44103;BME280;29769;42.178;24.742;2022-11-27T08:00:19;100845.09;;;6.54;100.00
44103;BME280;29769;42.178;24.742;2022-11-27T08:03:04;100844.44;;;6.65;100.00
44103;BME280;29769;42.178;24.742;2022-11-27T08:05:49;100850.75;;;6.77;100.00
44103;BME280;29769;42.178;24.742;2022-11-27T08:08:33;100840.63;;;6.96;100.00
44103;BME280;29769;42.178;24.742;2022-11-27T08:11:21;100840.75;;;7.02;100.00
44103;BME280;29769;42.178;24.742;2022-11-27T08:14:07;100845.06;;;6.99;100.00
44103;BME280;29769;42.178;24.742;2022-11-27T08:16:51;100842.19;;;6.85;100.00
44103;BME280;29769;42.178;24.742;2022-11-27T08:19:36;100849.56;;;7.09;100.00
44103;BME280;29769;42.178;24.742;2022-11-27T08:22:21;100842.97;;;7.31;100.00
44103;BME280;29769;42.178;24.742;2022-11-27T08:25:06;100834.47;;;7.44;97.46
44103;BME280;29769;42.178;24.742;2022-11-27T08:27:51;100834.38;;;7.41;97.58
44103;BME280;29769;42.178;24.742;2022-11-27T08:30:36;100836.44;;;7.58;97.34
44103;BME280;29769;42.178;24.742;2022-11-27T08:33:21;100830.75;;;7.90;95.88
44103;BME280;29769;42.178;24.742;2022-11-27T08:36:06;100840.66;;;8.14;93.18
44103;BME280;29769;42.178;24.742;2022-11-27T08:38:52;100770.69;;;8.03;90.16
44103;BME280;29769;42.178;24.742;2022-11-27T08:41:37;100815.84;;;8.55;88.48
44103;BME280;29769;42.178;24.742;2022-11-27T08:44:22;100824.06;;;8.85;84.23
44103;BME280;29769;42.178;24.742;2022-11-27T08:47:07;100819.88;;;9.10;82.65
44103;BME280;29769;42.178;24.742;2022-11-27T08:49:51;100831.53;;;9.40;80.58
44103;BME280;29769;42.178;24.742;2022-11-27T08:52:36;100833.78;;;8.99;79.53
44103;BME280;29769;42.178;24.742;2022-11-27T08:55:21;100811.97;;;9.03;79.68
44103;BME280;29769;42.178;24.742;2022-11-27T08:58:06;100830.91;;;8.73;81.42
44103;BME280;29769;42.178;24.742;2022-11-27T09:00:51;100826.63;;;8.81;81.68
44103;BME280;29769;42.178;24.742;2022-11-27T09:03:39;100823.97;;;8.76;82.46
44103;BME280;29769;42.178;24.742;2022-11-27T09:06:29;100817.97;;;8.89;81.00
44103;BME280;29769;42.178;24.742;2022-11-27T09:09:14;100799.66;;;9.00;80.05
44103;BME280;29769;42.178;24.742;2022-11-27T09:11:59;100811.09;;;9.04;79.84
44103;BME280;29769;42.178;24.742;2022-11-27T09:14:44;100819.81;;;9.04;79.41
44103;BME280;29769;42.178;24.742;2022-11-27T09:17:29;100808.44;;;9.01;80.22
44103;BME280;29769;42.178;24.742;2022-11-27T09:20:14;100805.91;;;9.11;80.01
44103;BME280;29769;42.178;24.742;2022-11-27T09:22:59;100779.00;;;9.40;78.77
44103;BME280;29769;42.178;24.742;2022-11-27T09:25:45;100794.22;;;10.04;76.74
44103;BME280;29769;42.178;24.742;2022-11-27T09:28:34;100787.38;;;10.35;72.41
44103;BME280;29769;42.178;24.742;2022-11-27T09:31:20;100774.22;;;10.29;70.83
44103;BME280;29769;42.178;24.742;2022-11-27T09:34:06;100778.44;;;10.00;72.95
44103;BME280;29769;42.178;24.742;2022-11-27T09:36:51;100768.00;;;10.15;72.23
44103;BME280;29769;42.178;24.742;2022-11-27T09:39:36;100769.03;;;10.70;70.05
44103;BME280;29769;42.178;24.742;2022-11-27T09:42:35;100763.78;;;11.06;66.78
44103;BME280;29769;42.178;24.742;2022-11-27T09:45:23;100758.47;;;11.50;64.30
44103;BME280;29769;42.178;24.742;2022-11-27T09:48:16;100737.22;;;12.08;61.50
44103;BME280;29769;42.178;24.742;2022-11-27T09:51:10;100734.41;;;12.37;58.77
44103;BME280;29769;42.178;24.742;2022-11-27T09:54:23;100727.41;;;12.34;57.83
44103;BME280;29769;42.178;24.742;2022-11-27T09:57:15;100734.59;;;12.00;58.96
44103;BME280;29769;42.178;24.742;2022-11-27T10:00:13;100729.13;;;12.40;57.98
44103;BME280;29769;42.178;24.742;2022-11-27T10:02:58;100722.66;;;12.83;56.47
44103;BME280;29769;42.178;24.742;2022-11-27T10:12:34;100708.66;;;13.64;50.60
44103;BME280;29769;42.178;24.742;2022-11-27T10:18:15;100698.50;;;14.01;48.92
44103;BME280;29769;42.178;24.742;2022-11-27T10:21:08;100697.38;;;14.18;48.85
44103;BME280;29769;42.178;24.742;2022-11-27T10:27:19;100695.25;;;14.46;46.99
44103;BME280;29769;42.178;24.742;2022-11-27T10:30:15;100691.00;;;14.33;47.38
44103;BME280;29769;42.178;24.742;2022-11-27T10:33:02;100693.25;;;14.62;46.99
44103;BME280;29769;42.178;24.742;2022-11-27T10:35:48;100675.22;;;14.85;46.26
44103;BME280;29769;42.178;24.742;2022-11-27T10:38:35;100674.84;;;15.05;44.77
44103;BME280;29769;42.178;24.742;2022-11-27T10:41:31;100662.38;;;15.11;44.03
44103;BME280;29769;42.178;24.742;2022-11-27T10:44:59;100668.69;;;14.52;44.20
44103;BME280;29769;42.178;24.742;2022-11-27T10:47:45;100666.50;;;14.17;45.29
44103;BME280;29769;42.178;24.742;2022-11-27T10:50:31;100661.41;;;14.07;45.78
44103;BME280;29769;42.178;24.742;2022-11-27T10:53:30;100647.00;;;14.26;45.72
44103;BME280;29769;42.178;24.742;2022-11-27T10:59:42;100642.28;;;15.87;42.10
44103;BME280;29769;42.178;24.742;2022-11-27T11:02:31;100635.94;;;15.94;41.20
44103;BME280;29769;42.178;24.742;2022-11-27T11:08:15;100625.53;;;14.96;43.25
44103;BME280;29769;42.178;24.742;2022-11-27T11:11:04;100616.25;;;15.20;43.25
44103;BME280;29769;42.178;24.742;2022-11-27T11:13:50;100620.06;;;15.50;41.68
44103;BME280;29769;42.178;24.742;2022-11-27T11:16:41;100613.56;;;16.06;40.56
44103;BME280;29769;42.178;24.742;2022-11-27T11:19:32;100601.41;;;15.96;39.15
44103;BME280;29769;42.178;24.742;2022-11-27T11:22:17;100608.69;;;14.51;42.27
44103;BME280;29769;42.178;24.742;2022-11-27T11:25:03;100608.44;;;14.65;41.98
44103;BME280;29769;42.178;24.742;2022-11-27T11:27:50;100610.69;;;14.36;42.38
44103;BME280;29769;42.178;24.742;2022-11-27T11:30:36;100619.69;;;14.22;40.78
44103;BME280;29769;42.178;24.742;2022-11-27T11:33:23;100607.25;;;13.71;41.50
44103;BME280;29769;42.178;24.742;2022-11-27T11:36:10;100600.38;;;13.56;42.11
44103;BME280;29769;42.178;24.742;2022-11-27T11:38:55;100604.66;;;13.66;42.33
44103;BME280;29769;42.178;24.742;2022-11-27T11:41:44;100599.69;;;14.05;41.88
44103;BME280;29769;42.178;24.742;2022-11-27T11:44:36;100594.97;;;13.64;41.74
44103;BME280;29769;42.178;24.742;2022-11-27T11:47:22;100589.09;;;14.05;41.00
44103;BME280;29769;42.178;24.742;2022-11-27T11:50:11;100583.59;;;14.72;39.75
44103;BME280;29769;42.178;24.742;2022-11-27T11:53:26;100575.44;;;15.29;37.88
44103;BME280;29769;42.178;24.742;2022-11-27T11:56:39;100583.28;;;15.76;38.24
44103;BME280;29769;42.178;24.742;2022-11-27T11:59:36;100572.75;;;15.72;36.36
44103;BME280;29769;42.178;24.742;2022-11-27T12:02:45;100568.34;;;15.31;36.68
44103;BME280;29769;42.178;24.742;2022-11-27T12:11:56;100553.97;;;14.98;37.00
44103;BME280;29769;42.178;24.742;2022-11-27T12:18:17;100546.94;;;14.97;37.40
44103;BME280;29769;42.178;24.742;2022-11-27T12:21:14;100550.28;;;15.05;36.86
44103;BME280;29769;42.178;24.742;2022-11-27T12:24:08;100546.75;;;15.49;36.26
44103;BME280;29769;42.178;24.742;2022-11-27T12:27:21;100545.44;;;15.68;35.85
44103;BME280;29769;42.178;24.742;2022-11-27T12:30:12;100538.47;;;15.64;35.90
44103;BME280;29769;42.178;24.742;2022-11-27T12:39:24;100535.63;;;15.72;37.32
44103;BME280;29769;42.178;24.742;2022-11-27T12:42:18;100539.72;;;15.45;37.25
44103;BME280;29769;42.178;24.742;2022-11-27T12:45:26;100534.81;;;15.27;37.75
44103;BME280;29769;42.178;24.742;2022-11-27T12:48:20;100540.34;;;13.64;40.48
44103;BME280;29769;42.178;24.742;2022-11-27T12:51:21;100536.94;;;13.58;41.20
44103;BME280;29769;42.178;24.742;2022-11-27T12:54:16;100534.09;;;13.01;41.95
44103;BME280;29769;42.178;24.742;2022-11-27T12:57:09;100532.53;;;12.83;41.96
44103;BME280;29769;42.178;24.742;2022-11-27T12:59:58;100543.84;;;12.08;43.67
44103;BME280;29769;42.178;24.742;2022-11-27T13:05:55;100544.06;;;11.73;44.48
44103;BME280;29769;42.178;24.742;2022-11-27T13:11:39;100548.59;;;11.43;44.99
44103;BME280;29769;42.178;24.742;2022-11-27T13:14:25;100537.25;;;11.29;45.02
44103;BME280;29769;42.178;24.742;2022-11-27T13:17:13;100523.19;;;11.32;45.38
44103;BME280;29769;42.178;24.742;2022-11-27T13:20:00;100544.22;;;11.36;45.36
44103;BME280;29769;42.178;24.742;2022-11-27T13:22:47;100539.84;;;11.38;46.50
44103;BME280;29769;42.178;24.742;2022-11-27T13:25:34;100544.06;;;11.68;46.88
44103;BME280;29769;42.178;24.742;2022-11-27T13:31:23;100538.59;;;12.00;46.62
44103;BME280;29769;42.178;24.742;2022-11-27T13:34:18;100530.56;;;12.15;46.07
44103;BME280;29769;42.178;24.742;2022-11-27T13:37:05;100537.94;;;11.66;46.53
44103;BME280;29769;42.178;24.742;2022-11-27T13:40:15;100540.66;;;11.52;47.39
44103;BME280;29769;42.178;24.742;2022-11-27T13:43:05;100515.28;;;11.33;47.33
44103;BME280;29769;42.178;24.742;2022-11-27T13:46:04;100527.53;;;11.40;47.28
44103;BME280;29769;42.178;24.742;2022-11-27T13:51:38;100526.69;;;11.32;48.38
44103;BME280;29769;42.178;24.742;2022-11-27T13:54:23;100533.69;;;11.38;48.17
44103;BME280;29769;42.178;24.742;2022-11-27T13:57:17;100526.69;;;11.32;47.66
44103;BME280;29769;42.178;24.742;2022-11-27T14:00:10;100532.84;;;11.34;47.92
44103;BME280;29769;42.178;24.742;2022-11-27T14:02:59;100523.31;;;11.04;49.52
44103;BME280;29769;42.178;24.742;2022-11-27T14:05:44;100532.09;;;11.06;49.06
44103;BME280;29769;42.178;24.742;2022-11-27T14:08:30;100528.59;;;10.95;49.99
44103;BME280;29769;42.178;24.742;2022-11-27T14:11:31;100524.22;;;11.00;49.88
44103;BME280;29769;42.178;24.742;2022-11-27T14:14:20;100530.41;;;10.87;51.06
44103;BME280;29769;42.178;24.742;2022-11-27T14:17:05;100524.28;;;10.78;52.29
44103;BME280;29769;42.178;24.742;2022-11-27T14:20:19;100517.25;;;10.77;52.10
44103;BME280;29769;42.178;24.742;2022-11-27T14:23:04;100522.56;;;10.66;52.54
44103;BME280;29769;42.178;24.742;2022-11-27T14:28:58;100526.09;;;10.57;53.42
44103;BME280;29769;42.178;24.742;2022-11-27T14:31:43;100515.59;;;10.57;53.23
44103;BME280;29769;42.178;24.742;2022-11-27T14:34:32;100527.84;;;10.54;53.57
44103;BME280;29769;42.178;24.742;2022-11-27T14:37:24;100520.84;;;10.56;53.80
44103;BME280;29769;42.178;24.742;2022-11-27T14:40:27;100521.72;;;10.53;53.23
44103;BME280;29769;42.178;24.742;2022-11-27T14:43:17;100525.22;;;10.51;52.69
44103;BME280;29769;42.178;24.742;2022-11-27T14:46:03;100515.59;;;10.47;52.97
44103;BME280;29769;42.178;24.742;2022-11-27T14:48:51;100526.13;;;10.44;52.91
44103;BME280;29769;42.178;24.742;2022-11-27T14:51:42;100520.00;;;10.34;53.20
44103;BME280;29769;42.178;24.742;2022-11-27T14:54:28;100528.78;;;10.30;54.01
44103;BME280;29769;42.178;24.742;2022-11-27T14:57:25;100526.16;;;10.30;54.30
44103;BME280;29769;42.178;24.742;2022-11-27T15:03:07;100525.28;;;10.25;54.75
44103;BME280;29769;42.178;24.742;2022-11-27T15:08:45;100519.97;;;10.14;56.23
44103;BME280;29769;42.178;24.742;2022-11-27T15:11:30;100520.88;;;10.12;56.53
44103;BME280;29769;42.178;24.742;2022-11-27T15:14:16;100524.34;;;10.09;56.73
44103;BME280;29769;42.178;24.742;2022-11-27T15:17:01;100534.00;;;10.06;57.05
44103;BME280;29769;42.178;24.742;2022-11-27T15:19:46;100527.88;;;10.02;57.13
44103;BME280;29769;42.178;24.742;2022-11-27T15:22:31;100527.88;;;9.98;57.22
44103;BME280;29769;42.178;24.742;2022-11-27T15:31:37;100535.72;;;9.82;58.55
44103;BME280;29769;42.178;24.742;2022-11-27T15:34:22;100534.88;;;9.80;58.57
44103;BME280;29769;42.178;24.742;2022-11-27T15:37:26;100540.13;;;9.83;58.42
44103;BME280;29769;42.178;24.742;2022-11-27T15:43:14;100530.47;;;9.67;58.69
44103;BME280;29769;42.178;24.742;2022-11-27T15:46:03;100512.94;;;9.65;59.05
44103;BME280;29769;42.178;24.742;2022-11-27T15:48:48;100527.84;;;9.67;59.38